Rockwood, ME

10:57 AM EDT on August 28, 2014 (GMT -0400)
Bangor International | Change Station
CLOSE
Current Station
Airport
Location: Bangor,
Elevation: 190 ft
Nearby Weather Stations

Elev 190 ft 44.80 °N, 68.82 °W | Updated 1 hour ago

Partly Cloudy
Partly Cloudy
72 °F
Feels Like 72 °F
N
15
Wind Variable Wind from NNW

Today
High -- | Low -- °F
--% Chance of Precip.
Yesterday
High -- | Low -- °F
Precip. -- in
5:55 AM 7:24 PM
Waxing Crescent, 8% visible
Pressure 29.79 in
Visibility 10.0 miles
Clouds Few 5000 ft
Dew Point 55 °F
Humidity 55%
Rainfall 0.00 in
Snow Depth Not available.
UV 5 out of 12
Pollen 7.10 out of 12
Air Quality Not available.
Flu Activity Not available.
METAR KBGR 281353Z 34013KT 10SM FEW050 22/13 A2980 RMK AO2 SLP088 T02220128

More Conditions Fewer Conditions

Pressure 29.79 in
Visibility 10.0 miles
Clouds Few 5000 ft
Dew Point 55 °F
Humidity 55%
Rainfall 0.00 in
Snow Depth Not available.
UV 5 out of 12
Pollen 7.10 out of 12
Air Quality Not available.
Flu Activity Not available.
METAR KBGR 281353Z 34013KT 10SM FEW050 22/13 A2980 RMK AO2 SLP088 T02220128

More Conditions Fewer Conditions

10-Day Weather Forecast

Almanac

Astronomy

Aug. 28, 2014 Rise Set
Actual Time 5:55 AM EDT 7:24 PM EDT
Civil Twilight 5:24 AM EDT 7:55 PM EDT
Nautical Twilight 4:46 AM EDT 8:32 PM EDT
Astronomical Twilight 4:05 AM EDT 9:12 PM EDT
Moon 8:55 AM EDT 8:34 PM EDT
Length of Visible Light 14h 31m
Length of Day
13h 29m
Tomorrow will be 3m 3s shorter.
Waxing Crescent, 8% of the Moon is Illuminated
Today
Waxing Crescent
Sep 2
First Quarter
Sep 8
Full
Sep 15
Last Quarter
Sep 24
New

Today's Extremes

State Highs State Lows

Community

WunderPhotos

Upload Photos

1,747,970 photos uploaded!

Nearby

Air Quality

  Air Quality AQ Index Pollutant
Thursday Good
OZONE
Thursday Good
PM2.5
Friday Good
OZONE
Friday Good
PM2.5
Saturday Good
OZONE
Saturday Good
PM2.5

Snow Depth

Station Depth Elevation
No new snow has been reported.

Earthquake Activity

City Distance Mag. Time & Date
No recent earthquake activity has been reported nearby.
Minimum magnitude displayed is 2.5.

Coastal Water Temperatures

Place Temperature
No Stations Reporting

Nearby Weather Stations